Time;durP1;ratioP1;P1;durP2;ratioP2;P2;SDS_P1;SDS_P2;PMS_P1;PMS_P2;Temp;Humidity;BMP_temperature;BMP_pressure;BME280_temperature;BME280_humidity;BME280_pressure;Samples;Min_cycle;Max_cycle;Signal;HPM_P1;HPM_P2
2022/06/30 00:00:39;;;;;;;1.27;1.10;;;20.90;99.90;;;;;;5047419;28;20045;-78
2022/06/30 00:03:06;;;;;;;2.88;1.35;;;20.90;99.90;;;;;;5031124;28;20058;-79
2022/06/30 00:05:32;;;;;;;5.45;1.30;;;20.90;99.90;;;;;;5034710;28;20045;-79
2022/06/30 00:07:59;;;;;;;2.08;1.27;;;21.00;99.90;;;;;;5031752;28;20054;-79
2022/06/30 00:10:26;;;;;;;2.30;1.02;;;20.90;99.90;;;;;;5032301;28;20454;-79
2022/06/30 00:12:52;;;;;;;2.45;1.08;;;20.90;99.90;;;;;;5034458;28;20046;-79
2022/06/30 00:15:20;;;;;;;4.88;1.30;;;20.90;99.90;;;;;;5035290;28;20041;-78
2022/06/30 00:17:48;;;;;;;3.15;1.15;;;20.90;99.90;;;;;;5039513;28;20056;-80
2022/06/30 00:20:14;;;;;;;6.05;1.17;;;20.90;99.90;;;;;;5033411;28;20255;-79
2022/06/30 00:22:41;;;;;;;3.55;1.25;;;20.80;99.90;;;;;;5033012;28;20049;-79
2022/06/30 00:25:08;;;;;;;4.78;1.40;;;20.80;99.90;;;;;;5031767;28;20053;-79
2022/06/30 00:27:35;;;;;;;1.92;1.27;;;20.80;99.90;;;;;;5028441;28;20136;-78
2022/06/30 00:30:01;;;;;;;1.40;1.20;;;20.90;99.90;;;;;;5029009;28;20132;-79
2022/06/30 00:32:29;;;;;;;1.55;1.40;;;20.70;99.90;;;;;;5025895;28;20503;-79
2022/06/30 00:34:56;;;;;;;3.90;1.13;;;20.70;99.90;;;;;;5027060;28;20045;-78
2022/06/30 00:37:23;;;;;;;1.70;1.33;;;20.80;99.90;;;;;;5024164;28;20054;-78
2022/06/30 00:39:50;;;;;;;2.05;1.40;;;20.80;99.90;;;;;;5027845;28;20050;-78
2022/06/30 00:42:16;;;;;;;3.22;1.13;;;20.80;99.90;;;;;;5025157;28;20056;-78
2022/06/30 00:44:43;;;;;;;2.67;1.20;;;20.70;99.90;;;;;;5032219;28;20073;-80
2022/06/30 00:47:10;;;;;;;2.25;1.10;;;20.70;99.90;;;;;;5028343;28;20060;-78
2022/06/30 00:49:38;;;;;;;2.58;1.25;;;20.70;99.90;;;;;;5026441;28;20138;-78
2022/06/30 00:52:09;;;;;;;4.90;1.40;;;20.60;99.90;;;;;;5025155;28;20141;-78
2022/06/30 00:54:38;;;;;;;4.82;1.80;;;20.60;99.90;;;;;;5025079;28;20054;-78
2022/06/30 00:57:07;;;;;;;4.35;1.20;;;20.60;99.90;;;;;;5027692;28;20454;-80
2022/06/30 00:59:36;;;;;;;1.87;1.20;;;20.60;99.90;;;;;;5028714;28;20483;-78
2022/06/30 01:02:04;;;;;;;4.50;1.10;;;20.60;99.90;;;;;;5024718;28;20073;-78
2022/06/30 01:04:33;;;;;;;4.63;1.50;;;20.50;99.90;;;;;;5031466;28;20049;-78
2022/06/30 01:07:02;;;;;;;2.05;1.20;;;20.50;99.90;;;;;;5030918;28;20561;-79
2022/06/30 01:15:01;;;;;;;1.67;1.30;;;20.50;99.90;;;;;;5032783;28;20065;-78
2022/06/30 01:17:28;;;;;;;7.07;1.45;;;20.30;99.90;;;;;;5035963;28;20489;-79
2022/06/30 01:19:56;;;;;;;1.80;1.20;;;20.30;99.90;;;;;;5032731;28;20136;-79
2022/06/30 01:22:23;;;;;;;3.30;1.25;;;20.30;99.90;;;;;;5035931;28;20046;-79
2022/06/30 01:24:50;;;;;;;1.33;1.15;;;20.20;99.90;;;;;;5035047;28;20060;-78
2022/06/30 01:27:16;;;;;;;2.15;1.30;;;20.20;99.90;;;;;;5034447;28;20441;-79
2022/06/30 01:29:43;;;;;;;2.08;1.15;;;20.20;99.90;;;;;;5031389;28;20052;-79
2022/06/30 01:32:10;;;;;;;3.35;1.35;;;20.20;99.90;;;;;;5036028;28;20055;-79
2022/06/30 01:34:37;;;;;;;2.65;1.30;;;20.10;99.90;;;;;;5031774;28;20046;-78
2022/06/30 01:37:05;;;;;;;1.50;1.20;;;20.10;99.90;;;;;;5034275;28;20045;-78
2022/06/30 01:39:32;;;;;;;1.30;1.20;;;20.10;99.90;;;;;;5030682;28;20046;-79
2022/06/30 01:41:59;;;;;;;3.53;1.38;;;20.10;99.90;;;;;;5038787;28;20046;-79
2022/06/30 01:44:25;;;;;;;4.00;1.52;;;20.00;99.90;;;;;;5035005;28;20045;-79
2022/06/30 01:46:52;;;;;;;2.35;1.83;;;20.00;99.90;;;;;;5033014;28;20053;-79
2022/06/30 01:49:19;;;;;;;1.98;1.65;;;20.00;99.90;;;;;;5033011;28;20080;-78
2022/06/30 01:51:46;;;;;;;1.33;1.23;;;20.00;99.90;;;;;;5031734;28;20103;-80
2022/06/30 01:54:12;;;;;;;2.67;1.20;;;19.90;99.90;;;;;;5034095;28;20052;-78
2022/06/30 01:56:39;;;;;;;8.30;1.67;;;19.90;99.90;;;;;;5031934;28;20113;-78
2022/06/30 01:59:07;;;;;;;1.75;1.17;;;19.90;99.90;;;;;;5033527;28;20137;-78
2022/06/30 02:01:34;;;;;;;3.88;1.20;;;19.90;99.90;;;;;;5048055;28;20050;-78
2022/06/30 02:04:46;;;;;;;2.00;1.42;;;20.00;99.90;;;;;;5032215;28;20069;-78
2022/06/30 02:06:48;;;;;;;2.58;1.65;;;20.00;99.90;;;;;;5032795;28;20056;-78
2022/06/30 02:09:15;;;;;;;2.65;1.63;;;19.90;99.90;;;;;;5031889;28;20412;-78
2022/06/30 02:11:42;;;;;;;1.35;1.25;;;19.90;99.90;;;;;;5035397;28;20045;-79
2022/06/30 02:14:08;;;;;;;3.63;1.42;;;19.90;99.90;;;;;;5023633;28;20132;-78
2022/06/30 02:16:35;;;;;;;2.63;1.48;;;19.90;99.90;;;;;;5029389;28;20060;-79
2022/06/30 02:19:03;;;;;;;2.83;1.40;;;19.90;99.90;;;;;;5022481;28;20072;-79
2022/06/30 02:21:30;;;;;;;1.45;1.30;;;19.90;99.90;;;;;;5022949;28;20050;-79
2022/06/30 02:23:56;;;;;;;2.90;1.40;;;19.80;99.90;;;;;;5030019;28;20049;-78
2022/06/30 02:26:23;;;;;;;3.78;1.20;;;19.80;99.90;;;;;;5022366;28;20141;-79
2022/06/30 02:28:50;;;;;;;2.67;1.40;;;19.70;99.90;;;;;;5022896;28;20052;-78
2022/06/30 02:31:17;;;;;;;2.78;1.63;;;19.70;99.90;;;;;;5022634;28;20045;-79
2022/06/30 02:33:43;;;;;;;3.05;1.15;;;19.60;99.90;;;;;;5022067;28;20056;-79
2022/06/30 02:36:10;;;;;;;2.33;1.33;;;19.60;99.90;;;;;;5029686;28;20133;-78
2022/06/30 02:38:37;;;;;;;1.73;1.40;;;19.50;99.90;;;;;;5029882;28;20415;-78
2022/06/30 02:41:04;;;;;;;4.20;1.30;;;19.50;99.90;;;;;;5039023;28;20045;-79
2022/06/30 02:43:30;;;;;;;2.05;1.15;;;19.50;99.90;;;;;;5038164;28;20073;-78
2022/06/30 02:45:57;;;;;;;2.90;1.45;;;19.50;99.90;;;;;;5032488;28;20060;-78
2022/06/30 02:48:24;;;;;;;3.15;1.42;;;19.50;99.90;;;;;;5028571;28;20045;-80
2022/06/30 02:50:50;;;;;;;4.30;1.60;;;19.40;99.90;;;;;;5031398;28;20080;-79
2022/06/30 02:53:17;;;;;;;4.60;1.45;;;19.40;99.90;;;;;;5028452;28;20077;-81
2022/06/30 02:55:44;;;;;;;4.63;1.50;;;19.30;99.90;;;;;;5028735;28;20077;-77
2022/06/30 02:58:11;;;;;;;1.75;1.40;;;19.30;99.90;;;;;;5028351;28;20105;-78
2022/06/30 03:00:37;;;;;;;3.10;1.42;;;19.30;99.90;;;;;;5026150;28;20065;-79
2022/06/30 03:03:04;;;;;;;1.88;1.50;;;19.30;99.90;;;;;;5029249;28;20128;-78
2022/06/30 03:05:31;;;;;;;3.20;1.85;;;19.30;99.90;;;;;;5027477;28;20053;-77
2022/06/30 03:07:58;;;;;;;5.25;1.60;;;19.30;99.90;;;;;;5028284;28;20056;-78
2022/06/30 03:10:24;;;;;;;3.30;1.88;;;19.30;99.90;;;;;;5035129;28;20045;-78
2022/06/30 03:12:51;;;;;;;3.15;1.60;;;19.30;99.90;;;;;;5024472;28;20479;-78
2022/06/30 03:15:18;;;;;;;4.18;1.63;;;19.30;99.90;;;;;;5023314;28;20056;-77
2022/06/30 03:17:44;;;;;;;1.85;1.33;;;19.20;99.90;;;;;;5027399;28;20426;-78
2022/06/30 03:20:11;;;;;;;3.78;1.77;;;19.20;99.90;;;;;;5025374;28;20081;-78
2022/06/30 03:22:38;;;;;;;3.13;1.50;;;19.20;99.90;;;;;;5028522;28;20069;-78
2022/06/30 03:25:05;;;;;;;6.85;1.48;;;19.10;99.90;;;;;;5033597;28;20053;-77
2022/06/30 03:27:31;;;;;;;1.50;1.40;;;19.00;99.90;;;;;;5030277;28;20187;-77
2022/06/30 03:29:58;;;;;;;3.13;1.70;;;19.00;99.90;;;;;;5028456;28;20041;-79
2022/06/30 03:32:25;;;;;;;3.20;1.40;;;18.90;99.90;;;;;;5032994;28;20326;-78
2022/06/30 03:34:51;;;;;;;4.00;1.55;;;18.90;99.90;;;;;;5030952;28;20423;-79
2022/06/30 03:37:18;;;;;;;2.58;1.70;;;18.80;99.90;;;;;;5029575;28;20077;-78
2022/06/30 03:39:45;;;;;;;4.65;1.70;;;18.80;99.90;;;;;;5029319;28;20049;-78
2022/06/30 03:42:11;;;;;;;3.75;1.77;;;18.80;99.90;;;;;;5029622;28;20058;-79
2022/06/30 03:44:39;;;;;;;3.08;1.30;;;18.70;99.90;;;;;;5028872;28;20050;-78
2022/06/30 03:47:06;;;;;;;1.80;1.50;;;18.80;99.90;;;;;;5024261;28;20503;-78
2022/06/30 03:49:33;;;;;;;1.45;1.35;;;18.70;99.90;;;;;;5023174;28;20052;-78
2022/06/30 03:52:00;;;;;;;1.58;1.42;;;18.80;99.90;;;;;;5025546;28;20515;-78
2022/06/30 03:54:27;;;;;;;3.05;1.98;;;18.80;99.90;;;;;;5014344;28;20050;-78
2022/06/30 03:56:54;;;;;;;5.25;1.45;;;18.70;99.90;;;;;;5013650;28;20056;-78
2022/06/30 03:59:21;;;;;;;2.70;1.48;;;18.70;99.90;;;;;;5016625;28;20070;-79
2022/06/30 04:01:47;;;;;;;3.08;1.52;;;18.50;99.90;;;;;;5021879;28;20145;-79
2022/06/30 04:04:14;;;;;;;2.15;1.65;;;18.40;99.90;;;;;;5032517;28;20116;-79
2022/06/30 04:06:41;;;;;;;2.05;1.45;;;18.40;99.90;;;;;;5021170;28;20054;-81
2022/06/30 04:09:08;;;;;;;5.97;1.65;;;18.40;99.90;;;;;;5018597;28;20050;-78
2022/06/30 04:11:35;;;;;;;2.20;1.60;;;18.40;99.90;;;;;;5019588;28;20057;-78
2022/06/30 04:14:02;;;;;;;4.47;1.70;;;18.40;99.90;;;;;;5021645;28;20056;-78
2022/06/30 04:16:28;;;;;;;3.13;1.85;;;18.50;99.90;;;;;;5028456;28;20081;-79
2022/06/30 04:18:55;;;;;;;4.60;2.05;;;18.50;99.90;;;;;;5028311;28;20064;-78
2022/06/30 04:21:22;;;;;;;7.60;1.50;;;18.60;99.90;;;;;;5031029;28;20054;-79
2022/06/30 04:23:49;;;;;;;3.92;1.58;;;18.60;99.90;;;;;;5026283;28;20073;-79
2022/06/30 04:26:16;;;;;;;4.93;1.50;;;18.60;99.90;;;;;;5032336;28;20053;-80
2022/06/30 04:28:42;;;;;;;3.45;1.85;;;18.60;99.90;;;;;;5030194;28;20530;-79
2022/06/30 04:33:54;;;;;;;5.03;1.83;;;18.60;99.90;;;;;;5033664;28;20045;-79
2022/06/30 04:36:21;;;;;;;2.40;1.80;;;18.60;99.90;;;;;;5021972;28;20114;-80
2022/06/30 04:38:48;;;;;;;3.63;1.60;;;18.60;99.90;;;;;;5022149;28;20082;-80
2022/06/30 04:41:27;;;;;;;3.50;1.75;;;18.60;99.90;;;;;;5022592;28;20084;-81
2022/06/30 04:43:59;;;;;;;2.72;1.90;;;18.60;99.90;;;;;;5022599;28;20056;-80
2022/06/30 04:46:26;;;;;;;3.28;1.90;;;18.70;99.90;;;;;;5034798;28;20084;-80
2022/06/30 04:48:54;;;;;;;4.82;1.70;;;18.70;99.90;;;;;;5034819;28;20613;-79
2022/06/30 04:51:21;;;;;;;5.63;1.90;;;18.80;99.90;;;;;;5035166;28;20070;-80
2022/06/30 04:53:47;;;;;;;3.00;1.42;;;18.90;99.90;;;;;;5034750;28;20085;-80
2022/06/30 04:56:15;;;;;;;1.92;1.30;;;19.00;99.90;;;;;;5036739;28;20064;-80
2022/06/30 04:58:42;;;;;;;2.30;1.70;;;19.00;99.90;;;;;;5035577;28;20322;-80
2022/06/30 05:01:08;;;;;;;4.18;1.60;;;19.00;99.90;;;;;;5035353;28;20046;-80
2022/06/30 05:03:35;;;;;;;7.05;1.58;;;19.20;99.90;;;;;;5037284;28;20141;-80
2022/06/30 05:06:03;;;;;;;3.45;1.80;;;19.40;99.90;;;;;;5034818;28;20079;-80
2022/06/30 05:08:29;;;;;;;2.80;2.00;;;19.50;99.90;;;;;;5037054;28;20068;-80
2022/06/30 05:10:56;;;;;;;3.72;2.30;;;19.60;99.90;;;;;;5036034;28;20443;-79
2022/06/30 05:13:26;;;;;;;4.95;3.28;;;19.70;99.90;;;;;;5034881;28;20046;-80
2022/06/30 05:15:53;;;;;;;2.60;2.15;;;19.90;99.90;;;;;;5038285;28;20128;-82
2022/06/30 05:18:20;;;;;;;4.95;2.17;;;20.00;99.90;;;;;;5035020;28;20100;-80
2022/06/30 05:20:47;;;;;;;7.60;1.70;;;20.10;99.90;;;;;;5035586;28;20052;-80
2022/06/30 05:23:14;;;;;;;3.35;2.30;;;20.30;99.90;;;;;;5036804;28;20523;-81
2022/06/30 05:28:26;;;;;;;4.75;2.50;;;20.40;99.90;;;;;;5034040;28;20060;-82
2022/06/30 05:30:52;;;;;;;8.70;3.08;;;20.60;99.90;;;;;;5034270;28;20056;-79
2022/06/30 05:33:21;;;;;;;6.18;2.92;;;20.70;99.90;;;;;;5033507;28;20054;-80
2022/06/30 05:35:50;;;;;;;3.13;2.67;;;20.80;99.90;;;;;;5034210;28;20404;-80
2022/06/30 05:38:17;;;;;;;6.28;2.67;;;20.80;99.90;;;;;;5036257;28;20050;-81
2022/06/30 05:40:47;;;;;;;3.20;2.72;;;20.80;99.90;;;;;;5035146;28;20047;-79
2022/06/30 05:43:15;;;;;;;3.15;2.45;;;20.90;99.90;;;;;;5039561;28;20045;-80
2022/06/30 05:45:42;;;;;;;2.78;1.98;;;20.90;99.90;;;;;;5035063;28;20060;-79
2022/06/30 05:48:09;;;;;;;4.55;2.85;;;20.90;99.90;;;;;;5034521;28;20056;-80
2022/06/30 05:50:35;;;;;;;3.70;2.28;;;21.00;99.90;;;;;;5034715;28;20069;-80
2022/06/30 05:53:02;;;;;;;4.72;2.05;;;21.00;99.90;;;;;;5032523;28;20052;-80
2022/06/30 05:55:29;;;;;;;2.38;1.90;;;21.00;99.90;;;;;;5032006;28;20132;-79
2022/06/30 05:57:58;;;;;;;4.97;1.90;;;21.10;99.90;;;;;;5041284;28;20125;-81
2022/06/30 06:00:27;;;;;;;4.07;2.20;;;21.10;99.90;;;;;;5033012;28;20538;-80
2022/06/30 06:02:54;;;;;;;4.82;2.67;;;21.10;99.90;;;;;;5040193;28;20061;-81
2022/06/30 06:05:22;;;;;;;2.50;2.00;;;21.10;99.90;;;;;;5032387;28;20057;-79
2022/06/30 06:07:49;;;;;;;3.35;1.98;;;21.10;99.90;;;;;;5035352;28;20132;-79
2022/06/30 06:10:16;;;;;;;3.28;2.30;;;21.10;99.90;;;;;;5030656;28;20073;-78
2022/06/30 06:12:44;;;;;;;3.50;2.95;;;21.10;99.90;;;;;;5039348;28;20052;-80
2022/06/30 06:15:12;;;;;;;6.72;2.70;;;21.10;99.90;;;;;;5039362;28;20050;-79
2022/06/30 06:17:43;;;;;;;4.35;2.58;;;21.10;99.90;;;;;;5033880;28;20065;-79
2022/06/30 06:20:12;;;;;;;2.58;2.25;;;21.10;99.90;;;;;;5030802;28;20491;-80
2022/06/30 06:22:40;;;;;;;2.42;1.88;;;21.10;99.90;;;;;;5033376;28;20057;-79
2022/06/30 06:25:07;;;;;;;5.25;2.38;;;21.10;99.90;;;;;;5032634;28;20124;-80
2022/06/30 06:27:34;;;;;;;4.15;2.22;;;21.10;99.90;;;;;;5036292;28;20494;-79
2022/06/30 06:30:05;;;;;;;3.80;1.98;;;21.10;99.90;;;;;;5049411;28;20046;-80
2022/06/30 06:32:33;;;;;;;6.57;2.42;;;21.20;99.90;;;;;;5035090;28;20077;-80
2022/06/30 06:35:00;;;;;;;3.88;2.10;;;21.20;99.90;;;;;;5035596;28;20053;-80
2022/06/30 06:37:27;;;;;;;3.90;2.10;;;21.20;99.90;;;;;;5036149;28;20132;-82
2022/06/30 06:39:54;;;;;;;2.30;2.10;;;21.20;99.90;;;;;;5034228;28;20052;-80
2022/06/30 06:42:20;;;;;;;2.85;2.20;;;21.30;99.90;;;;;;5034423;28;20045;-80
2022/06/30 06:44:48;;;;;;;5.78;2.40;;;21.30;99.90;;;;;;5036785;28;20088;-81
2022/06/30 06:47:16;;;;;;;4.50;2.22;;;21.30;99.90;;;;;;5042760;28;20113;-81
2022/06/30 06:49:44;;;;;;;3.28;2.25;;;21.40;99.90;;;;;;5032785;28;20046;-80
2022/06/30 06:52:11;;;;;;;5.38;2.28;;;21.40;99.90;;;;;;5036389;28;20368;-79
2022/06/30 06:54:37;;;;;;;3.35;2.42;;;21.40;99.90;;;;;;5033175;28;20479;-80
2022/06/30 06:57:05;;;;;;;3.50;2.75;;;21.40;99.90;;;;;;5035588;28;20077;-80
2022/06/30 06:59:34;;;;;;;3.97;2.88;;;21.50;99.90;;;;;;5024079;28;20053;-81
2022/06/30 07:02:01;;;;;;;3.63;2.30;;;21.50;99.90;;;;;;5032912;28;20395;-81
2022/06/30 07:04:28;;;;;;;8.90;2.95;;;21.50;99.90;;;;;;5034904;28;20469;-80
2022/06/30 07:06:54;;;;;;;4.55;2.45;;;21.60;99.90;;;;;;5035477;28;20072;-80
2022/06/30 07:09:21;;;;;;;17.92;2.83;;;21.60;99.90;;;;;;5034604;28;20096;-80
2022/06/30 07:11:48;;;;;;;4.60;2.80;;;21.60;99.90;;;;;;5038029;28;20081;-80
2022/06/30 07:14:15;;;;;;;3.55;2.97;;;21.60;99.90;;;;;;5046343;28;20516;-80
2022/06/30 07:16:42;;;;;;;6.38;2.60;;;21.60;99.90;;;;;;5031032;28;20159;-80
2022/06/30 07:19:09;;;;;;;6.03;2.70;;;21.60;99.90;;;;;;5029227;28;20499;-80
2022/06/30 07:21:41;;;;;;;10.15;2.50;;;21.70;99.90;;;;;;5027224;28;20060;-80
2022/06/30 07:24:08;;;;;;;4.03;2.50;;;21.70;99.90;;;;;;5031567;28;20063;-80
2022/06/30 07:26:35;;;;;;;4.68;2.08;;;21.80;99.90;;;;;;5029439;28;20065;-80
2022/06/30 07:29:02;;;;;;;5.20;2.25;;;21.70;99.90;;;;;;5033605;28;20103;-80
2022/06/30 07:31:28;;;;;;;4.10;2.75;;;21.80;99.90;;;;;;5028392;28;20080;-80
2022/06/30 07:33:55;;;;;;;4.88;2.42;;;21.80;99.90;;;;;;5026708;28;20104;-79
2022/06/30 07:36:22;;;;;;;7.20;2.70;;;21.90;99.90;;;;;;5028851;28;20133;-81
2022/06/30 07:38:49;;;;;;;5.35;2.70;;;21.90;99.90;;;;;;5044121;28;20138;-80
2022/06/30 07:41:17;;;;;;;5.40;2.55;;;21.90;99.90;;;;;;5028770;28;20053;-79
2022/06/30 07:43:44;;;;;;;6.13;2.85;;;21.90;99.90;;;;;;5029066;28;20483;-80
2022/06/30 07:46:11;;;;;;;4.45;2.72;;;22.00;99.90;;;;;;5027895;28;20042;-80
2022/06/30 07:48:39;;;;;;;2.47;2.17;;;22.00;99.90;;;;;;5027075;28;20137;-79
2022/06/30 07:51:06;;;;;;;6.40;2.75;;;22.10;99.90;;;;;;5026736;28;20496;-80
2022/06/30 07:53:33;;;;;;;4.30;2.63;;;22.10;99.90;;;;;;5024161;28;20045;-79
2022/06/30 07:56:00;;;;;;;6.47;2.75;;;22.10;99.90;;;;;;5030573;28;20045;-80
2022/06/30 07:58:27;;;;;;;4.07;2.88;;;22.20;99.90;;;;;;5032039;28;20364;-79
2022/06/30 08:00:54;;;;;;;8.25;3.22;;;22.20;99.90;;;;;;5032731;28;20049;-78
2022/06/30 08:03:20;;;;;;;5.97;3.10;;;22.20;99.90;;;;;;5030614;28;20073;-80
2022/06/30 08:05:47;;;;;;;8.50;2.72;;;22.30;99.90;;;;;;5035733;28;20061;-79
2022/06/30 08:08:14;;;;;;;5.38;3.00;;;22.30;99.90;;;;;;5042886;28;20053;-81
2022/06/30 08:10:41;;;;;;;8.68;3.03;;;22.40;99.90;;;;;;5028367;28;20069;-79
2022/06/30 08:13:08;;;;;;;4.15;2.53;;;22.40;99.90;;;;;;5029555;28;20057;-78
2022/06/30 08:15:36;;;;;;;5.15;2.17;;;22.40;99.90;;;;;;5030127;28;20547;-78
2022/06/30 08:18:06;;;;;;;6.75;2.85;;;22.50;99.90;;;;;;5024324;28;20046;-79
2022/06/30 08:20:33;;;;;;;6.32;2.95;;;22.50;99.90;;;;;;5021087;28;20137;-78
2022/06/30 08:23:00;;;;;;;5.05;2.50;;;22.60;99.90;;;;;;5022202;28;20053;-78
2022/06/30 08:25:27;;;;;;;8.20;2.33;;;22.60;99.90;;;;;;5022378;28;20088;-79
2022/06/30 08:27:53;;;;;;;8.65;3.58;;;22.60;99.90;;;;;;5021160;28;20475;-78
2022/06/30 08:30:20;;;;;;;4.32;2.30;;;22.60;99.90;;;;;;5029446;28;20076;-80
2022/06/30 08:32:47;;;;;;;8.07;2.28;;;22.70;99.90;;;;;;5031873;28;20103;-78
2022/06/30 08:35:14;;;;;;;7.78;2.53;;;22.70;99.90;;;;;;5023067;28;20050;-78
2022/06/30 08:37:41;;;;;;;4.18;2.55;;;22.80;99.90;;;;;;5010901;28;20050;-79
2022/06/30 08:42:57;;;;;;;5.90;2.03;;;22.90;99.90;;;;;;5006011;28;20109;-79
2022/06/30 08:45:25;;;;;;;5.25;1.98;;;23.00;99.90;;;;;;5009710;28;20109;-78
2022/06/30 08:47:51;;;;;;;4.82;2.45;;;23.00;99.90;;;;;;5007308;28;20081;-79
2022/06/30 08:50:18;;;;;;;2.40;1.60;;;23.10;99.90;;;;;;5017458;28;20045;-79
2022/06/30 08:53:04;;;;;;;4.88;2.22;;;23.10;99.90;;;;;;5011577;28;20485;-80
2022/06/30 08:55:32;;;;;;;8.45;1.77;;;23.30;99.90;;;;;;5010566;28;20038;-80
2022/06/30 08:58:03;;;;;;;6.32;3.00;;;23.20;99.90;;;;;;5007614;28;20141;-80
2022/06/30 09:00:30;;;;;;;3.78;2.58;;;23.40;99.90;;;;;;5007301;28;20431;-78
2022/06/30 09:02:57;;;;;;;4.88;2.50;;;23.50;99.90;;;;;;5018720;28;20078;-78
2022/06/30 09:05:24;;;;;;;3.13;2.20;;;23.50;99.90;;;;;;5012617;28;20523;-79
2022/06/30 09:07:51;;;;;;;2.60;1.83;;;23.60;99.90;;;;;;5016176;28;20484;-81
2022/06/30 09:10:50;;;;;;;3.72;2.72;;;23.60;99.90;;;;;;5007195;28;20049;-79
2022/06/30 09:13:17;;;;;;;4.00;2.60;;;23.70;99.90;;;;;;5007692;28;20101;-78
2022/06/30 09:15:44;;;;;;;5.72;2.60;;;23.70;99.90;;;;;;5010823;28;20085;-80
2022/06/30 09:18:28;;;;;;;3.35;2.13;;;23.70;99.90;;;;;;5009832;28;20043;-78
2022/06/30 09:20:56;;;;;;;3.75;1.98;;;23.80;99.90;;;;;;5008215;28;20500;-79
2022/06/30 09:23:24;;;;;;;3.97;2.63;;;23.80;99.90;;;;;;5012416;28;20091;-79
2022/06/30 09:25:54;;;;;;;5.13;2.58;;;23.80;99.90;;;;;;5009012;28;20058;-79
2022/06/30 09:28:50;;;;;;;3.93;2.07;;;23.90;99.90;;;;;;5008559;28;20416;-79
2022/06/30 09:31:39;;;;;;;2.35;1.60;;;23.90;99.90;;;;;;5011814;28;20057;-79
2022/06/30 09:34:21;;;;;;;7.47;1.90;;;24.00;99.90;;;;;;5012270;28;20081;-79
2022/06/30 09:36:52;;;;;;;2.85;1.95;;;24.10;99.90;;;;;;5012882;28;20054;-79
2022/06/30 09:39:20;;;;;;;2.15;1.70;;;24.20;99.90;;;;;;5017280;28;20084;-80
2022/06/30 09:41:49;;;;;;;6.00;1.63;;;24.20;99.90;;;;;;5021121;28;20061;-80
2022/06/30 09:44:16;;;;;;;4.95;1.90;;;24.20;99.90;;;;;;5024063;28;20480;-79
2022/06/30 09:47:00;;;;;;;3.20;1.70;;;24.30;99.90;;;;;;5018183;28;20057;-80
2022/06/30 09:49:47;;;;;;;3.17;1.90;;;24.40;99.90;;;;;;5020759;28;20057;-79
2022/06/30 09:52:17;;;;;;;2.90;1.80;;;24.30;99.90;;;;;;5020410;28;20066;-80
2022/06/30 09:55:06;;;;;;;2.80;1.63;;;24.40;99.90;;;;;;5016720;28;20097;-79
2022/06/30 09:57:45;;;;;;;2.28;1.77;;;24.50;99.90;;;;;;5019098;28;20049;-79
2022/06/30 10:00:15;;;;;;;4.65;1.42;;;24.70;99.90;;;;;;5018480;28;20085;-80
2022/06/30 10:02:46;;;;;;;3.25;1.73;;;24.80;99.90;;;;;;5018899;28;20069;-80
2022/06/30 10:05:15;;;;;;;4.93;1.85;;;24.90;99.90;;;;;;5017437;28;20046;-79
2022/06/30 10:07:42;;;;;;;4.18;1.65;;;25.00;99.90;;;;;;5019099;28;20081;-80
2022/06/30 10:10:12;;;;;;;2.70;1.75;;;25.00;99.90;;;;;;5015604;28;20047;-79
2022/06/30 10:12:44;;;;;;;5.00;2.05;;;25.00;99.90;;;;;;5016129;28;20057;-81
2022/06/30 10:15:15;;;;;;;4.70;1.50;;;25.00;99.90;;;;;;5019556;28;20070;-79
2022/06/30 10:17:50;;;;;;;3.13;1.83;;;25.10;99.90;;;;;;5018780;28;20077;-79
2022/06/30 10:20:20;;;;;;;3.60;1.92;;;25.20;99.90;;;;;;5014307;28;20109;-79
2022/06/30 10:22:48;;;;;;;5.18;2.00;;;25.20;99.90;;;;;;5018140;28;20052;-79
2022/06/30 10:25:17;;;;;;;4.30;1.73;;;25.30;99.90;;;;;;5013227;28;20066;-80
2022/06/30 10:27:45;;;;;;;3.95;1.70;;;25.40;99.90;;;;;;5014995;28;20065;-81
2022/06/30 10:30:23;;;;;;;7.82;2.55;;;25.40;99.90;;;;;;5016271;28;20078;-80
2022/06/30 10:33:22;;;;;;;4.72;1.75;;;25.40;99.90;;;;;;5006646;28;20101;-79
2022/06/30 10:35:59;;;;;;;4.32;1.77;;;25.50;99.90;;;;;;5004272;28;20436;-78
2022/06/30 10:38:35;;;;;;;6.53;1.55;;;25.70;99.90;;;;;;5002499;28;20072;-80
2022/06/30 10:41:11;;;;;;;2.50;1.58;;;25.70;99.90;;;;;;5008750;28;20057;-80
2022/06/30 10:44:02;;;;;;;2.65;1.77;;;25.60;99.90;;;;;;5014849;28;20046;-79
2022/06/30 10:46:56;;;;;;;2.58;1.98;;;25.60;99.90;;;;;;5014751;28;20474;-80
2022/06/30 10:49:24;;;;;;;4.78;2.00;;;25.70;99.90;;;;;;5016361;28;20042;-80
2022/06/30 10:52:13;;;;;;;4.68;2.05;;;25.80;99.90;;;;;;5015393;28;20121;-79
2022/06/30 10:54:43;;;;;;;2.55;1.65;;;25.80;99.90;;;;;;5016820;28;20058;-79
2022/06/30 10:57:12;;;;;;;4.60;1.95;;;25.90;99.90;;;;;;5016703;28;20053;-80
2022/06/30 10:59:41;;;;;;;2.73;1.60;;;25.90;99.90;;;;;;5017980;28;20085;-80
2022/06/30 11:02:22;;;;;;;1.85;1.70;;;25.90;99.90;;;;;;5018379;28;20321;-81
2022/06/30 11:05:10;;;;;;;2.00;1.80;;;26.00;99.90;;;;;;5025835;28;20046;-81
2022/06/30 11:07:37;;;;;;;3.17;1.60;;;26.00;99.90;;;;;;5019357;28;20074;-79
2022/06/30 11:10:05;;;;;;;2.72;1.83;;;26.00;99.90;;;;;;5023321;28;20050;-80
2022/06/30 11:12:32;;;;;;;2.67;1.73;;;26.00;99.90;;;;;;5021665;28;20045;-80
2022/06/30 11:14:59;;;;;;;4.60;2.15;;;26.00;99.90;;;;;;5023205;28;20155;-80
2022/06/30 11:17:29;;;;;;;4.93;1.60;;;26.00;99.90;;;;;;5015919;28;20046;-79
2022/06/30 11:20:04;;;;;;;3.20;1.60;;;26.10;99.90;;;;;;5048968;22;20079;-77
2022/06/30 11:22:32;;;;;;;4.60;2.20;;;26.10;99.90;;;;;;5046323;28;20095;-78
2022/06/30 11:25:03;;;;;;;2.53;1.70;;;26.10;99.90;;;;;;5044725;28;20487;-79
2022/06/30 11:27:32;;;;;;;3.67;2.00;;;26.20;99.90;;;;;;5028198;28;20099;-78
2022/06/30 11:30:02;;;;;;;3.38;1.75;;;26.20;99.90;;;;;;5033995;28;20056;-79
2022/06/30 11:32:29;;;;;;;4.30;1.93;;;26.20;99.90;;;;;;5027835;28;20131;-78
2022/06/30 11:34:59;;;;;;;3.30;1.67;;;26.20;99.90;;;;;;5035182;28;20177;-78
2022/06/30 11:37:26;;;;;;;;;;;26.30;99.90;;;;;;5022647;28;20050;-79
2022/06/30 11:40:04;;;;;;;3.05;1.73;;;26.30;99.90;;;;;;5025624;28;20000;-79
2022/06/30 11:42:32;;;;;;;4.00;1.65;;;26.40;99.90;;;;;;5028591;28;20049;-78
2022/06/30 11:44:59;;;;;;;5.63;1.33;;;26.40;99.90;;;;;;5016186;28;20317;-79
2022/06/30 11:47:28;;;;;;;2.42;1.77;;;26.50;99.90;;;;;;5026004;28;20393;-78
2022/06/30 11:49:58;;;;;;;8.15;2.45;;;26.60;99.90;;;;;;5024584;28;20419;-79
2022/06/30 11:52:38;;;;;;;2.80;1.70;;;26.60;99.90;;;;;;5020466;28;20046;-78
2022/06/30 11:55:12;;;;;;;1.90;1.63;;;26.50;99.90;;;;;;5026003;28;20046;-78
2022/06/30 11:57:41;;;;;;;1.95;1.50;;;26.60;99.90;;;;;;5021428;28;20100;-79
2022/06/30 12:00:15;;;;;;;4.20;1.83;;;26.70;99.90;;;;;;5026221;28;20054;-78
2022/06/30 12:02:43;;;;;;;3.50;1.60;;;26.90;99.90;;;;;;5016516;28;20419;-78
2022/06/30 12:05:13;;;;;;;4.60;1.65;;;27.00;99.90;;;;;;5023258;28;20146;-78
2022/06/30 12:07:42;;;;;;;3.83;2.47;;;27.00;99.90;;;;;;5027143;28;20384;-79
2022/06/30 12:10:12;;;;;;;3.03;1.90;;;27.00;99.90;;;;;;5030350;28;20079;-78
2022/06/30 12:12:39;;;;;;;3.17;1.50;;;27.30;99.90;;;;;;5026817;28;20050;-78
2022/06/30 12:15:08;;;;;;;2.65;1.58;;;27.30;99.90;;;;;;5024756;28;20042;-78
2022/06/30 12:17:38;;;;;;;3.85;1.83;;;27.30;99.90;;;;;;5020332;28;20077;-79
2022/06/30 12:20:07;;;;;;;3.38;1.60;;;27.40;99.90;;;;;;5010328;28;20070;-77
2022/06/30 12:22:38;;;;;;;5.20;2.40;;;27.30;99.90;;;;;;5021866;28;20068;-77
2022/06/30 12:25:05;;;;;;;3.90;1.75;;;27.30;99.90;;;;;;5018939;28;20053;-77
2022/06/30 12:27:45;;;;;;;3.38;1.80;;;27.40;99.90;;;;;;5028710;28;20418;-77
2022/06/30 12:30:18;;;;;;;5.07;1.75;;;27.40;99.90;;;;;;5021992;28;20049;-77
2022/06/30 12:32:56;;;;;;;5.13;1.73;;;27.40;99.90;;;;;;5027001;28;20133;-77
2022/06/30 12:35:25;;;;;;;5.32;2.33;;;27.40;99.90;;;;;;5028228;28;20069;-77
2022/06/30 12:37:55;;;;;;;2.92;2.00;;;27.40;99.90;;;;;;5012895;28;20049;-78
2022/06/30 12:40:26;;;;;;;4.45;2.17;;;27.40;99.90;;;;;;5023072;28;20056;-78
2022/06/30 12:42:55;;;;;;;5.15;2.22;;;27.50;99.90;;;;;;5017067;28;20054;-77
2022/06/30 12:45:55;;;;;;;2.63;2.15;;;27.50;99.90;;;;;;5021515;28;20522;-77
2022/06/30 12:48:41;;;;;;;5.40;1.98;;;27.50;99.90;;;;;;5012248;28;20057;-78
2022/06/30 12:51:13;;;;;;;4.57;2.00;;;27.50;99.90;;;;;;5025885;28;20458;-77
2022/06/30 12:53:41;;;;;;;3.90;1.98;;;27.50;99.90;;;;;;5021330;28;20053;-78
2022/06/30 12:56:18;;;;;;;6.72;2.40;;;27.50;99.90;;;;;;5020490;28;20530;-78
2022/06/30 12:58:50;;;;;;;3.90;2.35;;;27.60;99.90;;;;;;5022013;28;20049;-76
2022/06/30 13:01:26;;;;;;;7.32;2.42;;;27.70;99.90;;;;;;5025285;28;20120;-78
2022/06/30 13:03:59;;;;;;;3.00;1.80;;;27.70;99.90;;;;;;5024820;28;20423;-78
2022/06/30 13:06:29;;;;;;;5.22;2.20;;;27.80;99.90;;;;;;5021759;28;20085;-79
2022/06/30 13:08:56;;;;;;;;;;;27.80;99.90;;;;;;5027296;28;20049;-78
2022/06/30 13:11:26;;;;;;;3.50;1.95;;;27.90;99.90;;;;;;5031450;28;19921;-79